Date,TemperatureHighF,TemperatureAvgF,TemperatureLowF,DewpointHighF,DewpointAvgF,DewpointLowF,HumidityHigh,HumidityAvg,HumidityLow,PressureMaxIn,PressureMinIn,WindSpeedMaxMPH,WindSpeedAvgMPH,GustSpeedMaxMPH,PrecipitationSumIn
2013-1-1,86.4,73.0,59.7,55.6,49.0,42.3,61,44,30,29.42,29.21,28,13,34,0.06
2013-1-2,81.0,70.1,57.9,62.8,55.8,50.7,96,63,44,29.26,28.94,24,8,34,0.21
2013-1-3,70.0,57.0,44.6,56.2,47.6,39.4,97,74,47,29.47,28.95,24,8,31,0.12
2013-1-4,76.1,59.0,39.7,53.6,44.5,36.5,92,63,35,29.66,29.47,17,6,23,0.00
2013-1-5,79.2,68.1,56.3,55.6,52.0,47.1,84,60,41,29.68,29.56,20,13,27,0.00
2013-1-6,73.0,65.8,59.0,63.1,56.9,52.7,92,74,59,29.71,29.51,19,8,25,0.00
2013-1-7,76.3,59.6,50.7,58.6,52.4,48.2,95,79,53,29.55,29.03,19,7,26,0.02
2013-1-8,75.7,61.4,51.6,53.3,49.0,43.4,92,67,43,29.30,29.03,19,8,25,0.01
2013-1-9,87.6,72.7,57.6,59.9,50.2,43.2,79,49,29,29.29,28.98,25,14,34,0.00
2013-1-10,82.8,76.1,64.4,64.7,49.8,40.2,63,43,28,29.39,28.92,27,15,35,0.00
2013-1-11,88.5,71.3,58.5,54.1,46.8,39.1,64,45,27,29.63,29.40,17,8,24,0.00
2013-1-12,96.6,75.5,55.0,58.6,48.3,36.9,87,47,18,29.64,29.35,14,5,19,0.00
2013-1-13,91.6,74.9,60.8,65.4,57.1,49.4,82,57,36,29.42,29.03,17,8,30,0.00
2013-1-14,71.1,62.4,56.8,55.8,52.4,48.9,85,71,53,29.32,29.22,12,5,16,0.00
2013-1-15,61.3,57.5,55.6,58.1,54.7,51.8,100,91,82,29.49,29.31,14,4,20,0.47
2013-1-16,76.1,62.3,51.6,60.1,54.2,50.2,100,78,50,29.47,29.18,14,5,20,0.00
2013-1-17,60.8,53.2,46.6,53.9,49.8,44.4,96,88,66,29.32,29.08,18,7,22,0.34
2013-1-18,70.2,55.2,40.5,49.8,44.3,39.8,100,71,36,29.46,29.31,20,6,25,0.14
2013-1-19,88.3,67.4,54.9,61.9,52.4,45.5,84,63,38,29.42,29.07,21,13,31,0.00
2013-1-20,86.4,64.6,46.2,60.9,52.7,43.4,94,69,30,29.50,29.28,15,8,21,0.00
2013-1-21,74.7,61.2,47.5,61.3,53.0,46.1,100,77,54,29.84,29.50,15,6,22,0.00
2013-1-22,73.9,64.9,57.0,62.6,58.0,52.0,97,79,66,29.86,29.73,19,10,24,0.00
2013-1-23,88.7,73.5,53.4,65.4,55.5,51.1,100,62,32,29.74,29.60,21,10,28,0.01
2013-1-24,70.0,61.6,53.8,58.4,51.7,47.0,93,71,53,30.24,29.70,15,8,21,0.00
2013-1-25,69.1,59.8,46.0,59.6,50.8,43.3,97,74,57,30.26,30.14,19,9,27,0.00
2013-1-26,71.6,64.1,57.9,56.1,53.5,50.9,84,70,52,30.19,30.11,22,16,30,0.00
2013-1-27,81.9,68.0,56.5,62.4,57.7,52.0,94,72,50,30.25,30.15,16,7,19,0.00
2013-1-28,82.2,65.4,53.8,64.9,58.5,52.9,100,80,54,30.26,30.05,17,6,21,0.00
2013-1-29,82.6,67.4,59.0,65.0,59.8,55.5,94,78,54,30.08,29.91,12,5,17,0.00
2013-1-30,78.1,68.3,54.0,63.4,60.1,51.6,96,77,54,29.98,29.74,18,9,22,0.00
2013-1-31,93.7,74.5,52.2,71.8,52.5,29.5,100,59,15,29.82,29.73,13,6,17,0.00
2013-2-1,84.4,69.6,58.3,64.8,61.6,57.4,100,78,49,29.77,29.51,13,6,16,0.00
2013-2-2,79.7,66.0,57.0,66.5,61.8,56.5,100,88,61,29.57,29.38,14,6,19,0.00
2013-2-3,84.6,67.9,59.0,62.4,59.6,56.8,100,77,44,29.62,29.45,16,8,21,0.00
2013-2-4,73.8,62.6,53.1,65.8,59.6,45.7,100,91,72,29.49,29.14,28,10,34,0.45
2013-2-5,62.2,55.1,48.7,47.7,45.5,41.6,91,71,55,29.91,29.45,26,15,36,0.21
2013-2-6,67.8,57.6,51.8,55.0,49.9,45.9,92,77,53,30.03,29.88,13,6,17,0.01
2013-2-7,70.0,59.7,45.7,56.5,51.9,44.8,100,77,59,30.02,29.96,17,7,23,0.01
2013-2-8,70.7,63.1,56.5,60.2,56.6,52.9,92,80,66,30.02,29.80,20,12,27,0.01
2013-2-9,79.0,64.6,53.1,66.7,59.9,52.8,100,87,63,29.82,29.72,10,5,14,0.00
2013-2-10,82.8,67.5,55.9,65.2,59.2,55.7,100,78,44,29.76,29.52,19,10,24,0.00
2013-2-11,85.8,67.2,59.9,68.5,59.0,52.4,100,77,54,29.65,29.42,21,8,26,0.00
2013-2-12,72.7,62.7,56.3,59.7,56.8,53.8,95,82,61,29.66,29.41,14,7,19,0.00
2013-2-13,64.6,57.3,50.7,60.4,52.6,45.2,100,86,62,29.65,29.40,16,5,23,0.04
2013-2-14,80.2,63.9,47.1,52.3,48.1,41.1,95,63,30,29.64,29.49,17,6,22,0.01
2013-2-15,72.1,63.1,53.6,58.4,55.3,49.9,95,77,61,29.71,29.57,16,8,21,0.02
2013-2-16,87.8,68.7,53.8,61.9,57.1,52.4,97,72,34,29.69,29.54,12,5,19,0.00
2013-2-17,70.3,60.2,50.0,55.5,53.5,46.9,92,80,59,29.97,29.69,10,6,14,0.00
2013-2-18,75.6,61.1,44.8,59.2,53.8,43.8,100,79,54,30.01,29.92,13,6,18,0.00
2013-2-19,77.7,66.7,48.9,67.6,52.9,41.2,100,67,33,29.99,29.79,20,10,28,0.00
2013-2-20,71.8,63.5,52.5,59.9,56.7,50.5,97,80,65,29.84,29.76,15,6,19,0.00
2013-2-21,78.8,59.1,49.5,63.7,54.1,49.2,100,85,54,29.98,29.69,17,7,22,0.01
2013-2-22,70.3,57.5,44.6,52.8,50.1,41.8,96,78,52,30.01,29.93,9,5,14,0.00
2013-2-23,70.9,56.1,39.6,57.2,48.3,38.8,100,78,55,30.11,29.99,10,3,17,0.00
2013-2-24,73.8,58.3,41.4,59.5,51.1,40.6,100,80,55,30.20,30.09,11,3,14,0.00
2013-2-25,69.8,61.6,56.7,58.2,55.7,53.7,91,82,65,30.19,30.03,20,8,25,0.00
2013-2-26,77.5,65.8,57.7,62.4,58.7,55.4,93,79,57,30.06,29.91,15,9,21,0.00
2013-2-27,82.0,66.1,55.4,64.2,59.7,53.7,100,82,53,29.97,29.76,15,5,21,0.00
2013-2-28,77.7,67.9,60.8,64.6,59.3,54.8,94,76,51,29.75,29.43,20,12,27,0.00
2013-3-1,69.6,62.6,54.5,62.6,58.3,52.3,100,86,72,29.65,29.47,16,7,22,0.00
2013-3-2,77.5,64.2,58.5,60.5,56.7,55.0,90,78,54,29.65,29.40,10,3,13,0.00
2013-3-3,67.6,60.4,54.9,58.3,52.1,47.4,95,76,54,29.57,29.37,15,7,21,0.00
2013-3-4,75.2,59.9,54.1,59.8,52.0,46.9,93,76,55,29.65,29.22,18,9,23,0.00
2013-3-5,76.5,60.6,47.8,55.6,51.4,46.8,97,74,43,29.70,29.54,16,7,21,0.00
2013-3-6,91.8,64.8,54.9,59.0,52.4,44.9,87,69,24,29.82,29.44,21,8,29,0.00
2013-3-7,68.7,58.5,51.6,56.8,53.0,48.6,100,83,64,29.83,29.69,17,8,24,0.05
2013-3-8,91.4,67.9,52.2,63.2,57.2,51.9,100,75,35,29.92,29.70,12,6,17,0.00
2013-3-9,69.1,61.2,56.3,60.4,56.9,55.1,100,87,67,29.97,29.80,16,7,21,0.02
2013-3-10,72.1,61.0,53.8,60.7,57.5,52.7,100,89,66,29.93,29.78,14,5,20,0.00
2013-3-11,69.3,60.6,53.6,61.0,55.2,50.0,100,84,62,29.98,29.74,13,6,19,0.00
2013-3-12,67.6,59.2,54.7,56.1,52.7,50.0,89,79,65,29.98,29.75,13,6,17,0.00
2013-3-13,83.1,63.6,57.0,59.8,55.0,52.4,90,76,43,29.75,29.62,9,4,14,0.00
2013-3-14,79.0,65.3,52.0,61.4,57.9,49.1,100,79,52,29.66,29.44,16,9,24,0.00
2013-3-15,77.4,64.2,53.8,64.8,59.3,53.5,100,86,59,29.74,29.50,9,3,11,0.00
2013-3-16,69.1,61.8,59.4,60.2,57.5,56.0,96,86,70,29.75,29.48,9,4,12,0.00
2013-3-17,78.6,63.1,57.4,66.4,59.9,55.7,100,90,61,29.47,29.05,15,5,20,0.41
2013-3-18,60.1,57.2,54.1,59.8,56.7,50.6,100,98,85,29.37,29.05,14,7,21,0.76
2013-3-19,59.4,52.5,48.2,52.4,49.4,46.1,100,90,69,29.84,29.37,13,6,16,0.30
2013-3-20,75.6,54.6,40.5,55.7,47.0,40.2,100,80,39,30.04,29.84,8,2,9,0.00
2013-3-21,68.2,55.6,40.8,54.9,48.5,39.5,100,80,54,30.12,30.03,14,5,21,0.00
2013-3-22,70.9,61.5,52.3,57.8,54.3,50.0,94,78,60,30.11,29.95,15,8,20,0.00
2013-3-23,79.3,64.1,49.8,57.3,52.3,44.3,96,70,33,29.98,29.80,12,5,16,0.00
2013-3-24,81.5,65.0,55.4,55.6,50.4,45.2,82,62,37,29.82,29.73,14,5,21,0.00
2013-3-25,81.3,69.1,58.1,54.5,50.6,48.5,74,55,37,29.74,29.54,20,7,25,0.00
2013-3-26,71.4,62.6,54.1,58.8,54.4,49.1,91,76,52,29.96,29.70,16,9,21,0.00
2013-3-27,76.6,59.3,48.4,62.5,55.6,47.6,100,88,61,30.01,29.89,14,3,19,0.00
2013-3-28,76.1,60.2,50.5,62.3,56.6,50.2,100,89,62,29.98,29.76,14,4,19,0.00
2013-3-29,86.5,65.3,55.8,63.6,58.0,51.8,100,81,42,29.76,29.44,11,6,18,0.00
2013-3-30,82.8,67.1,51.1,58.5,51.0,45.7,85,60,36,29.87,29.45,14,5,19,0.00
2013-3-31,79.9,67.4,59.5,63.9,55.9,49.8,96,70,40,29.78,29.49,15,7,21,0.07
2013-4-1,84.6,64.5,54.3,60.6,51.1,45.1,77,63,45,30.02,29.54,18,8,27,0.00
2013-4-2,80.8,64.5,56.3,58.7,52.8,46.5,92,69,34,30.01,29.69,14,8,17,0.00
2013-4-3,72.0,62.7,49.8,59.0,53.6,47.5,93,74,59,29.83,29.47,18,10,24,0.01
2013-4-4,70.7,55.0,42.1,55.3,46.3,38.9,100,77,34,30.14,29.83,9,3,14,0.01
2013-4-5,63.0,52.1,45.3,51.5,45.9,42.0,100,80,64,30.31,30.09,13,5,22,0.04
2013-4-6,58.3,48.9,40.1,50.4,44.8,39.6,100,87,65,30.39,30.30,11,4,14,0.01
2013-4-7,66.7,49.7,38.1,52.6,43.6,37.4,100,82,46,30.39,30.23,6,2,8,0.02
2013-4-8,70.9,54.8,41.7,57.0,46.9,41.5,100,79,49,30.22,30.04,8,2,12,0.01
2013-4-9,56.1,50.5,42.4,52.1,45.1,39.1,100,83,66,30.35,30.10,20,6,28,0.12
2013-4-10,61.3,49.8,34.7,50.8,43.4,34.5,100,81,57,30.35,30.12,14,6,22,0.00
2013-4-11,77.9,60.8,41.5,53.5,47.5,41.0,100,67,36,30.10,29.83,15,7,20,0.00
2013-4-12,68.7,59.2,50.4,54.8,49.3,45.5,88,71,53,30.31,29.89,13,7,20,0.00
2013-4-13,61.9,50.1,42.1,55.7,47.0,39.4,97,89,80,30.30,30.27,16,4,24,0.00
2013-4-17,57.0,54.8,54.0,56.5,54.5,53.7,100,99,97,29.70,29.60,9,5,10,0.48
2013-4-18,58.8,54.1,46.0,54.0,51.1,44.6,100,90,79,29.93,29.69,12,5,15,0.01
2013-4-19,59.9,51.5,44.1,52.8,48.7,43.5,100,91,72,30.07,29.91,8,3,11,0.01
2013-4-20,56.7,49.8,48.4,54.9,48.9,47.3,99,97,80,30.09,30.03,8,1,12,0.22
2013-4-21,58.3,53.9,51.8,58.0,52.6,48.9,100,96,83,30.02,29.68,15,6,20,0.40
2013-4-22,61.5,53.0,45.1,60.7,51.8,44.9,100,96,83,29.68,29.53,3,0,4,0.02
2013-4-23,70.3,56.1,47.7,61.1,53.6,47.4,100,92,72,29.60,29.51,9,2,13,0.01
2013-4-24,73.6,56.4,46.0,62.3,51.6,45.4,100,86,51,29.54,29.48,9,2,13,0.01
2013-4-25,77.9,57.2,45.5,62.1,51.9,45.2,99,86,48,29.59,29.49,9,2,11,0.01
2013-4-26,62.1,54.3,45.3,55.2,49.3,45.1,100,85,61,29.69,29.43,16,6,24,0.02
2013-4-27,71.8,58.6,46.6,53.6,48.2,40.5,100,71,47,29.72,29.43,17,7,23,0.00
2013-4-28,79.0,63.8,49.8,54.7,48.6,45.0,91,62,37,29.82,29.68,22,6,30,0.00
2013-4-29,74.3,63.7,51.1,60.5,53.9,46.5,100,73,45,29.91,29.67,16,4,20,0.00
2013-4-30,54.5,50.8,42.6,54.2,48.9,42.1,100,93,76,30.25,29.91,16,3,20,0.41
2013-5-1,62.1,49.6,38.3,49.5,44.5,38.0,100,84,54,30.23,30.03,16,7,21,0.01
2013-5-2,57.9,50.9,46.0,50.9,47.2,43.6,100,88,72,30.00,29.75,10,4,14,0.14
2013-5-3,68.2,51.6,45.5,54.2,48.2,45.2,100,89,58,30.13,29.96,13,5,18,0.04
2013-5-4,66.7,59.4,52.9,57.7,53.6,50.0,94,82,70,29.95,29.40,19,13,27,0.00
2013-5-5,69.1,58.4,53.8,57.2,52.9,49.5,100,83,63,29.37,29.19,15,8,17,0.05
2013-5-6,54.1,48.6,45.5,53.9,47.6,43.1,100,97,87,29.95,29.33,22,15,34,2.02
2013-5-7,64.8,48.2,37.6,49.7,42.6,36.6,100,84,48,30.25,29.96,9,2,11,0.06
2013-5-8,62.4,46.0,31.3,56.4,41.0,31.0,100,86,57,30.30,30.23,9,2,12,0.01
2013-5-9,66.2,47.3,35.1,57.9,43.4,34.8,100,88,54,30.22,29.56,9,2,12,0.01
2013-5-10,54.5,48.5,42.4,48.2,41.6,35.9,93,78,62,30.24,29.63,22,13,29,0.04
2013-5-11,61.7,49.4,42.4,47.0,40.0,33.7,91,71,58,30.40,30.25,10,5,14,0.00
2013-5-12,78.4,56.8,41.0,56.1,47.9,38.9,95,76,43,30.41,30.27,10,4,14,0.00
2013-5-13,54.3,51.9,49.8,53.7,50.5,49.0,100,95,89,30.36,30.17,11,4,17,0.00
2013-5-14,67.3,53.8,42.4,56.1,50.5,42.2,100,90,68,30.15,29.89,8,4,11,0.00
2013-5-15,71.1,49.9,39.2,58.2,46.9,38.9,100,91,61,30.07,29.95,9,2,11,0.01
2013-5-16,67.1,52.6,44.2,59.7,50.9,44.0,100,94,72,30.05,29.85,15,6,19,0.00
2013-5-17,64.8,58.0,49.6,54.9,52.0,45.1,100,82,62,29.85,29.68,10,5,14,0.21
2013-5-18,54.3,52.9,52.2,54.0,52.6,51.9,100,99,99,29.67,29.47,12,9,19,0.14
2013-5-19,54.7,52.5,51.3,54.4,52.2,51.0,99,99,99,29.65,29.46,7,2,11,0.44
2013-5-20,61.0,51.8,45.3,55.6,50.4,45.1,100,95,79,29.75,29.62,10,2,13,0.01
2013-5-21,58.3,53.5,50.7,56.3,52.6,50.4,100,97,89,29.79,29.64,10,3,17,0.26
2013-5-22,66.2,54.5,48.0,57.1,52.4,47.8,100,94,67,29.62,29.37,9,2,14,0.24
2013-5-23,55.9,50.4,44.6,51.5,45.7,41.5,100,85,64,29.85,29.39,20,13,26,0.09
2013-5-24,64.8,48.2,39.6,49.3,41.6,37.9,100,81,45,30.05,29.86,9,4,13,0.04
2013-5-25,70.0,53.3,42.4,49.7,44.7,40.7,100,77,42,29.92,29.62,9,5,14,0.00
2013-5-26,70.9,57.1,42.1,48.9,38.5,29.6,67,51,30,29.49,29.11,24,10,30,0.00
2013-5-27,52.0,45.9,39.4,41.2,37.8,29.5,91,74,54,29.48,29.21,24,6,34,0.02
2013-5-28,46.8,38.9,35.2,36.7,31.1,26.7,89,74,52,29.85,29.48,24,8,32,0.14
2013-5-29,59.2,44.2,34.3,42.2,33.8,26.6,91,68,45,30.28,30.00,20,5,24,0.01
2013-5-30,61.9,44.8,30.6,43.1,36.1,27.6,93,74,42,30.35,30.26,8,3,12,0.00
2013-5-31,67.1,49.0,36.1,48.7,40.3,32.4,89,73,50,30.27,30.13,6,3,8,0.00
2013-6-1,64.2,53.4,42.6,50.7,45.8,40.2,91,76,62,30.13,29.73,10,5,12,0.00
2013-6-2,69.3,63.9,55.8,48.9,45.3,41.4,75,53,42,29.72,29.42,18,11,29,0.00
2013-6-3,63.5,49.5,44.1,49.7,46.5,42.9,100,91,49,29.62,29.44,16,8,21,0.35
2013-6-4,48.0,45.6,41.2,47.8,44.4,39.3,100,96,80,29.87,29.37,20,8,28,0.39
2013-6-5,58.1,43.3,33.1,44.5,37.1,31.0,100,81,53,30.17,29.87,5,1,8,0.00
2013-6-6,60.8,47.0,41.4,49.1,43.0,40.0,96,87,64,30.32,30.18,11,3,15,0.00
2013-6-7,58.3,47.9,38.8,46.9,42.0,36.0,97,81,63,30.31,30.12,14,7,20,0.01
2013-6-8,68.5,54.9,44.6,49.1,44.2,40.7,90,69,44,30.11,29.83,14,7,17,0.00
2013-6-9,57.2,50.8,43.0,52.0,47.6,41.8,100,90,71,30.18,29.88,13,4,18,0.00
2013-6-10,57.4,50.3,45.3,53.5,49.0,45.1,100,96,80,30.22,30.11,11,5,15,0.00
2013-6-11,53.1,48.7,42.4,52.8,48.4,42.2,99,99,99,30.11,30.03,11,4,18,0.00
2013-6-12,68.5,48.8,37.6,56.2,45.4,37.3,99,90,52,30.03,29.94,9,2,11,0.00
2013-6-13,55.8,47.0,37.9,51.3,45.0,37.2,100,93,79,30.04,29.86,9,3,12,0.01
2013-6-14,54.3,47.8,43.3,49.9,46.1,43.1,99,94,81,30.14,30.05,13,5,16,0.11
2013-6-15,51.1,47.9,45.3,47.6,45.9,44.5,100,93,86,30.08,29.94,13,5,19,0.12
2013-6-16,46.9,45.7,44.8,46.7,45.4,44.5,99,99,99,29.95,29.62,5,2,7,1.07
2013-6-17,53.2,50.4,46.0,53.0,50.2,45.8,99,99,99,29.60,29.38,17,7,23,0.83
2013-6-18,57.4,46.9,38.3,50.1,44.9,38.0,100,94,73,29.48,29.31,13,4,17,0.00
2013-6-19,48.2,45.2,42.6,47.9,44.9,42.4,99,99,99,29.31,29.06,7,3,9,0.39
2013-6-20,44.6,41.4,37.0,44.3,39.4,34.3,100,93,70,29.47,29.04,27,16,37,0.85
2013-6-21,45.0,38.9,34.0,41.2,36.5,32.7,100,92,71,29.82,29.48,24,17,31,0.41
2013-6-22,39.9,37.8,36.3,39.7,37.6,36.1,99,99,99,30.04,29.83,19,14,24,1.25
2013-6-23,53.6,39.6,30.2,43.1,35.2,30.0,100,86,60,30.04,29.65,9,2,12,0.01
2013-6-24,66.6,40.8,27.7,46.1,34.7,26.9,100,82,44,30.07,29.94,5,1,8,0.00
2013-6-25,62.8,40.9,28.8,45.2,34.2,28.0,100,79,45,30.11,30.06,6,1,8,0.01
2013-6-26,55.9,40.5,28.4,48.5,36.0,26.4,94,84,66,30.20,30.07,7,2,11,0.00
2013-6-27,49.3,40.5,30.4,44.0,37.9,29.1,100,91,76,30.22,30.13,11,4,17,0.12
2013-6-28,55.9,43.4,32.9,46.7,38.8,-3.3,100,86,10,30.22,30.16,22,4,24,0.06
2013-6-29,57.9,38.9,26.1,47.1,35.5,25.3,100,89,58,30.18,30.05,8,2,11,0.00
2013-6-30,60.4,43.8,35.1,45.1,38.4,33.2,100,83,55,30.04,29.96,6,3,9,0.01
2013-7-1,66.0,49.0,34.0,44.7,38.5,31.6,96,70,42,29.99,29.88,12,4,16,0.00
2013-7-2,73.2,61.5,52.7,47.1,42.3,39.1,65,50,38,29.90,29.80,23,8,29,0.00
2013-7-3,70.9,56.3,43.9,48.8,42.2,37.9,92,62,40,29.90,29.60,20,8,27,0.00
2013-7-4,56.1,49.4,45.1,48.3,45.6,42.7,97,87,71,30.05,29.83,19,11,24,0.00
2013-7-5,70.7,58.4,47.5,45.4,40.3,34.6,83,52,37,29.81,29.51,18,9,23,0.00
2013-7-6,67.3,57.0,48.4,49.6,42.1,35.6,87,59,42,29.54,29.27,40,12,51,0.05
2013-7-7,58.8,51.5,39.9,43.6,38.0,29.8,79,60,45,29.67,29.42,21,10,29,0.00
2013-7-8,61.2,41.3,29.8,44.7,34.0,26.1,95,76,53,29.96,29.70,8,1,11,0.00
2013-7-9,51.4,42.5,18.7,42.4,37.0,16.0,97,81,67,30.09,29.82,11,5,16,0.01
2013-7-10,50.4,41.5,36.0,44.0,38.4,34.1,97,89,70,30.54,30.11,14,6,20,0.19
2013-7-11,57.7,39.1,29.1,42.8,33.8,26.6,100,83,50,30.56,30.47,8,1,11,0.01
2013-7-12,57.9,37.6,25.3,38.9,32.1,24.1,96,82,47,30.49,30.23,5,1,6,0.00
2013-7-13,47.7,42.2,36.1,47.4,41.8,35.9,100,98,89,30.22,29.75,11,3,16,0.22
2013-7-14,46.4,41.6,35.8,43.4,38.0,32.4,100,87,66,30.00,29.69,25,14,43,0.33
2013-7-15,47.3,43.3,38.3,44.2,40.5,34.0,96,90,76,30.24,29.97,17,9,23,0.32
2013-7-16,49.8,41.4,32.4,44.5,38.3,32.1,100,89,75,30.30,30.19,14,4,19,0.01
2013-7-17,66.9,49.6,37.2,47.7,40.8,35.7,100,74,41,30.25,30.13,7,3,10,0.00
2013-7-18,61.9,52.0,42.3,50.6,45.5,38.3,93,79,64,30.22,30.09,4,1,6,0.01
2013-7-19,52.5,47.2,38.7,51.7,46.2,38.7,100,96,91,30.28,30.17,4,1,8,0.00
2013-7-20,55.0,49.5,46.8,50.4,48.3,46.3,100,95,82,30.26,30.07,15,7,21,0.00
2013-7-21,72.9,50.1,37.6,55.6,44.5,37.3,99,84,49,30.08,29.99,7,3,9,0.01
2013-7-22,65.7,53.6,45.5,51.3,45.6,41.7,89,75,56,30.06,29.85,11,6,16,0.00
2013-7-23,59.7,52.3,44.2,52.8,48.0,44.0,100,86,66,29.92,29.70,6,2,11,0.06
2013-7-24,67.1,48.7,34.9,56.7,42.8,34.6,99,83,51,29.69,29.47,7,2,11,0.01
2013-7-25,68.5,50.0,36.1,48.6,39.1,31.3,89,68,45,29.65,29.46,8,2,14,0.00
2013-7-26,68.2,48.7,32.0,45.2,35.9,28.0,88,64,35,30.02,29.67,8,3,9,0.00
2013-7-27,66.2,49.6,40.1,46.5,41.1,37.0,97,75,43,30.21,30.03,7,2,9,0.00
2013-7-28,72.7,48.5,35.1,50.2,40.5,33.2,96,77,39,30.31,30.20,4,1,6,0.00
2013-7-29,63.5,47.1,34.7,46.9,39.4,32.8,95,76,46,30.42,30.31,9,3,13,0.00
2013-7-30,59.4,50.4,35.8,50.9,45.3,35.5,100,83,70,30.33,30.23,13,7,18,0.00
2013-7-31,50.9,43.5,36.5,48.1,42.7,35.7,100,97,88,30.28,30.16,8,3,11,0.01
2013-8-1,57.7,42.9,32.5,50.1,40.6,32.0,100,92,74,30.35,30.27,6,2,8,0.00
2013-8-2,54.7,46.9,42.1,51.1,45.8,41.8,100,96,83,30.33,30.07,4,1,6,0.01
2013-8-3,54.1,50.3,45.9,53.1,49.4,45.6,100,97,91,30.06,29.78,23,12,28,0.17
2013-8-4,55.9,52.9,50.5,51.1,50.0,49.2,100,90,81,29.80,29.73,21,14,29,0.01
2013-8-5,63.0,53.5,50.2,54.4,50.8,47.0,100,91,67,29.81,29.62,15,8,20,0.00
2013-8-6,70.9,54.5,45.9,49.5,44.1,39.6,88,69,40,29.79,29.62,5,2,8,0.00
2013-8-7,68.4,53.0,36.7,50.7,43.6,34.6,100,72,50,29.80,29.55,15,6,20,0.00
2013-8-8,72.5,51.4,42.8,56.4,41.2,35.3,92,69,51,29.87,29.67,8,3,11,0.00
2013-8-9,55.0,44.4,37.4,49.3,42.4,36.9,100,93,81,30.01,29.88,8,2,9,0.00
2013-8-10,50.5,45.8,37.0,50.4,45.5,36.8,100,99,96,29.92,29.51,17,6,21,0.00
2013-8-11,52.7,51.2,50.4,52.4,50.9,50.1,100,99,99,29.48,29.25,18,12,26,0.01
2013-8-12,55.0,49.3,45.5,50.7,47.4,43.6,100,93,83,29.54,29.28,10,4,14,0.17
2013-8-13,54.9,47.7,37.4,48.6,44.5,37.1,100,89,76,29.54,29.01,21,9,27,0.00
2013-8-14,64.0,51.1,38.5,58.7,39.0,30.1,100,68,30,29.51,29.03,11,3,14,0.02
2013-8-15,71.8,56.7,43.7,50.6,42.3,36.5,80,60,39,29.65,29.51,13,4,19,0.00
2013-8-16,67.6,55.9,48.9,50.1,46.0,41.3,92,71,49,29.80,29.62,9,4,11,0.00
2013-8-17,55.8,51.1,48.9,53.6,50.0,48.0,100,96,89,29.91,29.80,15,4,20,0.37
2013-8-18,54.0,51.6,50.0,53.6,50.9,49.7,100,97,92,29.98,29.89,14,7,18,0.13
2013-8-19,55.9,52.1,49.8,51.3,49.0,47.1,100,89,80,30.01,29.94,20,13,27,0.04
2013-8-20,57.0,52.1,49.3,50.6,47.9,46.3,94,86,76,29.94,29.78,22,16,28,0.00
2013-8-21,59.7,52.7,49.5,53.0,49.1,47.2,94,88,75,29.78,29.59,21,14,27,0.00
2013-8-22,67.3,56.4,50.4,53.6,48.8,40.7,93,77,55,29.59,29.51,21,11,27,0.00
2013-8-23,69.8,53.3,43.0,51.5,43.4,37.9,100,72,37,29.72,29.57,10,4,14,0.00
2013-8-24,63.5,50.1,38.5,47.4,42.0,38.2,99,76,46,29.71,29.52,14,6,21,0.01
2013-8-25,62.2,51.0,45.1,51.2,44.1,38.1,94,78,63,29.64,29.50,11,4,14,0.00
2013-8-26,66.0,53.2,43.9,54.4,47.0,40.4,94,80,64,29.77,29.50,11,5,14,0.02
2013-8-27,71.1,55.0,45.9,49.5,41.0,0.1,93,64,10,29.76,29.67,12,5,14,0.00
2013-8-28,61.0,49.6,40.1,44.9,40.7,36.2,95,73,49,29.74,29.41,22,6,31,0.17
2013-8-29,61.7,47.7,34.9,45.1,36.9,32.3,95,70,39,30.08,29.73,14,5,20,0.17
2013-8-30,57.9,48.3,39.2,45.8,40.7,34.0,92,76,57,30.33,30.08,12,6,17,0.01
2013-8-31,55.4,46.5,35.8,44.5,40.9,34.7,96,81,64,30.37,30.27,18,10,25,0.00
2013-9-1,57.6,49.3,39.4,46.9,43.2,37.3,93,80,64,30.47,30.36,17,10,22,0.00
2013-9-2,58.1,46.2,30.7,48.0,42.0,30.7,100,86,66,30.46,30.24,19,9,25,0.00
2013-9-3,63.0,50.8,36.7,54.0,44.8,35.8,100,81,59,30.23,29.92,17,6,21,0.00
2013-9-4,51.3,46.8,43.5,45.6,40.6,32.5,95,79,64,30.11,29.62,25,14,34,0.28
2013-9-5,54.1,44.8,37.9,43.7,38.9,35.1,93,81,53,30.19,30.07,16,8,27,0.15
2013-9-6,70.9,50.9,37.0,49.4,41.3,33.8,91,71,45,30.05,29.75,12,3,16,0.00
2013-9-7,70.7,55.4,41.9,50.6,41.6,36.1,83,62,40,29.79,29.48,17,5,21,0.00
2013-9-8,64.0,53.1,44.2,48.3,42.4,35.1,88,68,48,29.65,29.46,17,7,26,0.00
2013-9-9,63.9,51.2,42.3,46.1,39.6,32.4,82,65,48,29.62,29.42,19,6,24,0.00
2013-9-10,71.8,58.4,44.1,47.4,39.4,31.1,64,50,39,29.63,29.01,46,15,62,0.84
2013-9-11,70.5,63.0,57.4,58.0,51.2,40.2,84,66,51,29.27,29.08,24,12,31,0.14
2013-9-12,66.7,55.5,45.3,48.3,42.7,34.3,84,63,43,29.58,29.17,27,9,34,0.00
2013-9-13,67.8,52.7,40.6,41.0,35.0,28.8,77,53,25,29.56,29.42,14,5,19,0.00
2013-9-14,68.4,50.9,41.2,48.3,40.2,30.4,93,69,32,29.55,29.36,11,3,14,0.00
2013-9-15,56.8,46.4,35.1,38.9,32.8,27.3,80,60,40,29.90,29.59,22,9,30,0.01
2013-9-16,65.7,49.5,35.6,48.4,38.5,32.1,88,68,38,29.91,29.70,10,4,14,0.00
2013-9-17,54.3,46.4,36.5,42.8,38.2,33.8,94,74,50,30.19,29.90,21,7,28,0.00
2013-9-18,63.7,47.7,34.3,46.4,39.9,33.1,97,76,50,30.17,29.99,16,6,21,0.00
2013-9-19,68.7,48.9,34.3,50.7,41.3,32.3,96,77,46,30.01,29.63,13,3,18,0.01
2013-9-20,62.4,52.7,43.2,53.2,47.3,41.3,95,82,64,29.61,29.49,13,4,16,0.00
2013-9-21,63.1,56.9,52.5,56.7,50.5,45.9,96,80,66,29.57,29.49,10,5,14,0.05
2013-9-22,53.6,50.1,45.5,52.7,49.6,45.2,100,98,92,29.59,29.45,10,4,13,0.22
2013-9-23,67.5,53.2,46.9,58.1,51.0,46.7,100,93,63,29.99,29.53,10,3,14,0.05
2013-9-24,58.6,51.6,47.5,52.3,48.7,43.2,99,90,74,30.11,30.00,12,4,15,0.00
2013-9-25,50.7,48.2,46.4,50.4,46.9,43.3,100,95,86,30.00,29.56,11,6,14,0.09
2013-9-26,68.0,53.5,46.8,57.9,50.2,46.0,100,90,58,29.62,29.37,14,6,19,0.04
2013-9-27,60.8,51.7,39.6,53.9,47.4,39.3,100,86,65,29.63,29.15,23,8,34,0.01
2013-9-28,64.6,54.0,47.5,53.5,48.0,42.1,100,80,65,29.37,29.03,14,6,20,0.04
2013-9-29,60.6,50.2,46.0,50.5,46.6,44.7,100,88,65,29.50,29.39,10,5,14,0.02
2013-9-30,66.4,53.1,47.1,53.6,47.9,44.3,100,84,58,29.75,29.50,11,4,18,0.01
2013-10-1,69.8,57.5,48.4,51.7,48.4,45.9,95,73,49,29.79,29.67,18,10,22,0.00
2013-10-2,70.3,61.6,52.5,51.1,47.2,40.7,89,61,42,29.81,29.56,18,8,27,0.00
2013-10-3,70.0,57.9,50.0,55.9,51.4,47.6,95,80,60,29.85,29.56,13,5,19,0.00
2013-10-4,71.6,59.2,50.0,59.4,52.7,47.3,93,80,61,29.81,29.60,13,5,18,0.00
2013-10-5,75.2,56.2,48.4,61.7,52.7,47.4,100,89,59,29.81,29.58,12,4,16,0.00
2013-10-6,81.1,62.9,49.6,62.6,53.0,44.5,99,74,40,29.59,29.30,12,6,15,0.00
2013-10-7,63.3,54.9,44.4,51.8,45.3,38.0,100,72,45,29.51,29.24,17,6,28,0.17
2013-10-8,45.3,42.6,37.8,45.1,42.3,37.5,99,99,99,29.52,29.45,8,2,11,1.15
2013-10-9,51.1,44.4,35.2,43.6,40.6,33.4,100,87,68,29.61,29.46,17,8,23,0.33
2013-10-10,59.4,47.3,33.8,47.1,40.4,32.5,100,79,54,29.59,29.08,15,6,21,0.00
2013-10-11,60.1,50.6,41.0,55.9,45.7,39.6,100,84,61,29.25,29.00,13,6,17,0.00
2013-10-12,70.5,51.2,43.7,51.0,45.8,41.8,100,84,46,29.46,29.02,18,4,25,0.30
2013-10-13,76.8,55.9,37.0,56.0,45.8,36.8,100,73,40,29.55,29.35,18,8,25,0.01
2013-10-14,70.9,62.2,47.8,60.7,50.3,42.4,90,66,43,29.35,28.74,41,11,49,0.17
2013-10-15,71.1,52.0,38.3,47.0,39.9,33.9,97,67,31,29.51,29.17,23,5,29,0.11
2013-10-16,59.0,46.3,34.2,48.6,41.3,33.9,100,84,62,29.65,29.50,17,5,27,0.01
2013-10-17,75.6,61.4,47.5,52.1,45.9,40.0,76,58,38,29.77,29.65,17,6,24,0.00
2013-10-18,78.1,65.1,55.4,56.6,47.0,21.7,76,54,17,29.99,29.50,27,12,28,0.06
2013-10-19,67.8,57.6,49.3,52.0,47.2,44.6,90,70,50,30.06,29.91,18,9,21,0.00
2013-10-20,82.4,61.5,45.1,55.6,45.7,39.8,93,60,29,30.02,29.82,13,5,17,0.00
2013-10-21,73.0,59.0,49.6,50.3,45.8,38.4,87,64,41,29.82,29.54,25,7,34,0.00
2013-10-22,50.4,50.1,48.7,49.0,47.6,45.3,95,91,88,29.80,29.78,6,4,9,0.00
2013-10-23,48.4,46.2,44.2,45.3,43.8,42.1,93,91,89,29.82,29.79,2,1,4,0.00
2013-10-24,71.2,64.4,56.1,56.6,53.5,50.7,82,68,56,29.45,29.32,24,11,24,0.01
2013-10-26,65.8,63.6,57.4,48.4,47.1,44.3,62,55,48,29.42,29.31,31,23,37,0.07
2013-10-27,63.7,56.8,43.5,37.9,33.7,28.0,73,43,27,29.53,29.42,22,14,33,0.00
2013-10-28,59.7,49.5,44.4,45.1,39.6,37.5,81,69,47,29.85,29.64,15,6,21,0.00
2013-10-29,66.6,59.3,50.9,47.8,45.1,39.3,87,61,37,29.83,29.69,14,10,20,0.00
2013-10-30,73.4,50.9,39.0,55.4,45.5,38.0,100,84,48,29.75,29.59,14,2,17,0.00
2013-10-31,70.9,60.0,50.2,61.9,52.9,46.5,97,79,57,29.52,29.27,14,8,22,0.01
2013-11-1,64.8,51.1,42.8,49.0,45.1,41.9,100,81,52,29.66,29.47,13,6,17,0.34
2013-11-2,64.8,52.9,35.8,51.7,44.8,35.5,100,76,55,29.71,29.59,13,5,18,0.01
2013-11-3,62.6,55.6,46.6,53.7,49.2,42.6,92,80,65,29.87,29.71,21,10,27,0.00
2013-11-4,80.1,63.6,49.6,58.9,52.8,47.7,100,71,40,29.72,29.60,14,7,21,0.00
2013-11-5,79.3,63.8,50.9,60.7,50.1,44.3,88,64,35,29.92,29.65,16,7,20,0.00
2013-11-6,57.2,54.3,52.0,53.5,51.5,49.4,100,90,82,30.02,29.92,13,7,18,0.00
2013-11-7,70.5,58.7,47.8,58.2,53.5,46.5,100,84,58,29.96,29.73,18,7,22,0.00
2013-11-8,74.3,58.3,52.3,63.5,56.6,52.1,100,94,62,29.81,29.63,18,9,23,0.05
2013-11-9,68.0,56.5,51.8,57.3,53.2,50.7,100,89,67,29.87,29.69,19,7,28,0.00
2013-11-10,85.6,66.9,54.0,60.3,54.4,51.7,100,69,35,29.80,29.50,20,11,27,0.00
2013-11-11,61.9,55.6,51.6,52.1,47.0,43.6,89,73,62,30.28,29.79,16,7,23,0.00
2013-11-12,71.2,56.9,47.1,54.5,48.4,43.6,89,74,51,30.41,30.28,8,3,14,0.00
2013-11-13,63.1,53.1,41.9,52.5,46.7,40.8,100,80,64,30.40,30.18,16,8,21,0.00
2013-11-14,63.5,55.1,46.2,52.8,48.0,43.0,91,77,66,30.23,30.00,19,11,24,0.00
2013-11-15,67.6,57.8,52.5,58.3,52.6,48.3,96,83,70,30.00,29.65,20,12,28,0.00
2013-11-16,86.0,67.2,54.3,62.2,54.6,50.5,100,68,34,29.85,29.58,16,8,21,0.00
2013-11-17,66.9,59.0,53.2,57.9,53.6,51.3,95,83,64,29.92,29.85,16,7,21,0.00
2013-11-18,79.9,62.5,55.4,62.7,56.5,52.9,100,82,52,30.07,29.91,14,4,19,0.00
2013-11-19,66.0,59.8,53.8,59.5,56.6,53.5,100,90,76,30.10,29.97,22,11,30,0.00
2013-11-20,71.4,63.1,57.4,61.6,57.3,54.2,93,82,66,29.97,29.69,23,15,33,0.00
2013-11-21,87.8,61.8,52.2,65.1,56.3,50.4,100,84,41,29.90,29.64,18,5,23,0.05
2013-11-22,64.9,56.6,52.7,58.3,54.1,52.4,99,91,76,30.01,29.90,14,6,17,0.08
2013-11-23,72.3,61.8,55.9,62.6,57.9,54.7,100,88,69,30.01,29.81,14,8,20,0.00
2013-11-24,86.4,65.9,57.2,66.0,59.4,56.0,100,82,44,29.81,29.38,11,6,14,0.00
2013-11-25,62.2,56.1,49.6,58.5,52.8,47.3,100,89,58,29.59,29.38,13,6,19,0.40
2013-11-26,59.5,53.3,48.7,53.8,49.0,46.3,100,86,68,29.85,29.59,7,3,12,0.08
2013-11-27,62.4,55.3,50.4,57.3,52.6,49.5,100,91,76,29.93,29.80,13,4,21,0.05
2013-11-28,68.4,59.1,51.8,58.8,54.3,50.0,100,85,68,29.81,29.37,12,6,18,0.00
2013-11-29,76.3,62.1,47.5,59.3,52.7,47.2,100,75,44,29.37,28.99,26,10,33,0.00
2013-11-30,74.3,62.7,47.5,54.0,47.5,34.1,90,61,25,29.47,29.00,25,10,32,0.00
2013-12-1,71.2,56.5,43.9,50.4,44.8,39.4,96,67,35,29.98,29.45,18,7,24,0.00
2013-12-2,82.8,62.8,48.7,60.4,52.2,44.7,90,71,38,30.04,29.94,13,5,17,0.00
2013-12-3,75.6,64.0,49.1,61.0,56.4,46.3,100,78,57,30.05,29.80,16,7,20,0.00
2013-12-4,80.2,64.0,55.6,66.8,58.3,54.4,97,83,54,29.89,29.64,12,6,17,0.00
2013-12-5,82.2,64.3,54.3,67.7,60.4,53.6,100,88,57,29.66,29.47,11,6,16,0.00
2013-12-6,86.7,71.8,58.1,69.4,62.3,54.1,99,75,41,29.48,29.23,13,7,18,0.00
2013-12-7,79.5,71.5,60.4,56.4,49.4,43.6,72,47,31,29.24,29.16,31,12,40,0.00
2013-12-8,76.6,63.3,55.9,59.0,55.1,51.0,100,76,51,29.47,29.21,12,5,17,0.59
2013-12-9,73.4,62.6,53.8,60.9,56.0,53.8,100,81,53,29.70,29.47,10,5,17,0.01
2013-12-10,73.6,62.2,57.0,63.2,57.9,56.1,100,86,66,29.74,29.63,14,5,20,0.00
2013-12-11,81.1,65.5,57.0,64.8,58.5,52.0,97,80,48,29.67,29.54,14,6,18,0.01
2013-12-12,76.1,65.4,-5.8,64.2,59.1,-10.5,100,81,59,29.62,29.40,19,8,24,0.00
2013-12-13,85.5,66.4,56.8,66.0,59.2,54.9,95,79,48,29.80,29.52,14,5,17,0.00
2013-12-14,73.4,65.1,53.8,63.6,59.1,52.7,100,82,66,29.80,29.68,13,6,17,0.00
2013-12-15,81.0,64.2,54.0,66.8,60.3,53.7,100,88,60,29.82,29.65,12,6,17,0.00
2013-12-16,80.6,65.9,58.8,65.6,60.6,56.5,100,84,58,29.66,29.53,14,6,19,0.04
2013-12-17,67.1,58.1,52.5,58.9,53.6,49.0,100,86,59,29.80,29.59,13,6,18,0.15
2013-12-18,75.0,61.6,50.0,58.8,53.6,48.9,100,77,47,29.79,29.47,17,8,24,0.06
2013-12-19,66.7,56.4,51.1,52.5,49.7,46.4,100,80,58,29.92,29.66,17,7,22,0.30
2013-12-20,71.4,59.7,43.3,60.3,52.5,42.2,100,78,61,29.92,29.51,18,9,25,0.00
2013-12-21,78.6,61.7,48.6,58.2,51.9,41.4,100,74,32,29.61,29.33,19,7,25,0.06
2013-12-22,69.6,57.3,47.3,54.0,47.9,44.5,100,74,46,29.84,29.61,9,4,14,0.17
2013-12-23,81.9,61.8,48.4,59.8,51.4,45.9,92,71,36,29.83,29.64,11,6,14,0.00
2013-12-24,81.0,66.7,56.7,62.3,56.5,48.9,96,72,47,29.67,29.09,17,8,24,0.04
2013-12-25,76.1,62.3,53.1,59.8,54.9,46.6,100,79,49,29.52,29.15,16,5,21,0.71
2013-12-26,66.0,58.1,54.3,61.9,57.5,54.1,100,98,85,29.99,29.51,16,8,20,0.17
2013-12-27,63.0,58.6,54.0,60.6,57.7,53.1,100,97,78,30.05,29.98,10,5,14,0.11
2013-12-28,72.3,61.3,56.3,68.3,60.3,56.0,100,97,81,30.00,29.85,9,4,13,0.18
2013-12-29,67.6,63.7,60.8,67.7,63.3,60.5,100,99,94,29.87,29.60,10,5,17,0.20
2013-12-30,74.1,65.2,52.9,66.9,60.2,45.2,99,85,50,29.60,29.28,15,8,21,0.02
2013-12-31,76.6,62.6,45.3,54.3,45.8,40.7,92,58,30,29.73,29.44,12,4,19,0.00
2014-1-1,75.0,62.4,50.9,54.8,46.6,40.4,73,57,38,29.73,29.53,21,9,26,0.00
2014-1-2,76.6,65.3,56.5,55.1,48.4,42.5,65,55,42,29.64,29.36,19,10,28,0.00